createdAt,value
2022-08-01T00:01:56.775Z,18.94
2022-08-01T00:04:23.215Z,18.90
2022-08-01T00:06:49.674Z,18.90
2022-08-01T00:09:24.106Z,18.80
2022-08-01T00:11:59.684Z,18.82
2022-08-01T00:14:32.711Z,18.75
2022-08-01T00:17:05.170Z,18.88
2022-08-01T00:19:33.860Z,18.90
2022-08-01T00:22:00.339Z,18.83
2022-08-01T00:24:26.766Z,18.86
2022-08-01T00:26:53.191Z,18.88
2022-08-01T00:30:09.490Z,18.82
2022-08-01T00:32:06.472Z,18.96
2022-08-01T00:34:33.190Z,18.86
2022-08-01T00:36:59.634Z,18.76
2022-08-01T00:39:26.043Z,18.86
2022-08-01T00:41:59.790Z,18.74
2022-08-01T00:44:26.944Z,18.66
2022-08-01T00:46:53.382Z,18.73
2022-08-01T00:49:19.857Z,18.66
2022-08-01T00:51:46.341Z,18.75
2022-08-01T00:54:13.256Z,18.69
2022-08-01T00:56:42.997Z,18.59
2022-08-01T00:59:10.036Z,18.54
2022-08-01T01:01:39.432Z,18.61
2022-08-01T01:04:08.582Z,18.62
2022-08-01T01:07:01.044Z,18.69
2022-08-01T01:09:30.275Z,18.65
2022-08-01T01:12:17.759Z,18.64
2022-08-01T01:15:03.904Z,18.66
2022-08-01T01:17:50.630Z,18.74
2022-08-01T01:20:18.594Z,18.54
2022-08-01T01:22:54.109Z,18.56
2022-08-01T01:25:37.676Z,18.60
2022-08-01T01:28:21.393Z,18.70
2022-08-01T01:30:51.728Z,18.67
2022-08-01T01:33:18.602Z,18.77
2022-08-01T01:35:48.908Z,18.56
2022-08-01T01:38:23.215Z,18.66
2022-08-01T01:40:51.615Z,18.56
2022-08-01T01:43:18.175Z,18.64
2022-08-01T01:45:45.780Z,18.69
2022-08-01T01:48:14.849Z,18.74
2022-08-01T01:50:42.268Z,18.73
2022-08-01T01:53:08.940Z,18.70
2022-08-01T01:55:49.314Z,18.63
2022-08-01T01:58:17.193Z,18.75
2022-08-01T02:00:45.724Z,18.75
2022-08-01T02:03:13.443Z,18.76
2022-08-01T02:05:40.790Z,18.66
2022-08-01T02:08:07.940Z,18.69
2022-08-01T02:10:35.241Z,18.65
2022-08-01T02:13:04.228Z,18.60
2022-08-01T02:15:31.461Z,18.65
2022-08-01T02:17:58.702Z,18.76
2022-08-01T02:20:27.323Z,18.86
2022-08-01T02:22:58.904Z,18.77
2022-08-01T02:25:28.366Z,18.76
2022-08-01T02:28:09.108Z,18.85
2022-08-01T02:30:37.494Z,18.80
2022-08-01T02:33:15.531Z,18.77
2022-08-01T02:36:32.564Z,18.75
2022-08-01T02:38:32.618Z,18.61
2022-08-01T02:41:03.538Z,18.61
2022-08-01T02:43:31.188Z,18.56
2022-08-01T02:46:01.489Z,18.66
2022-08-01T02:48:28.187Z,18.82
2022-08-01T02:50:56.896Z,18.87
2022-08-01T02:53:44.224Z,18.66
2022-08-01T02:56:12.941Z,18.65
2022-08-01T02:58:40.306Z,18.68
2022-08-01T03:01:08.252Z,18.69
2022-08-01T03:03:35.229Z,18.89
2022-08-01T03:06:02.800Z,18.85
2022-08-01T03:08:30.791Z,18.91
2022-08-01T03:10:58.130Z,18.91
2022-08-01T03:13:26.331Z,18.92
2022-08-01T03:15:53.242Z,18.89
2022-08-01T03:18:19.785Z,18.84
2022-08-01T03:20:46.696Z,18.90
2022-08-01T03:23:13.756Z,18.85
2022-08-01T03:25:41.862Z,18.97
2022-08-01T03:28:09.450Z,18.92
2022-08-01T03:30:37.898Z,18.76
2022-08-01T03:33:04.544Z,18.70
2022-08-01T03:35:34.808Z,18.60
2022-08-01T03:38:17.460Z,18.60
2022-08-01T03:40:54.449Z,18.57
2022-08-01T03:43:29.010Z,18.63
2022-08-01T03:45:57.656Z,18.61
2022-08-01T03:48:29.141Z,18.59
2022-08-01T03:50:56.371Z,18.56
2022-08-01T03:53:27.316Z,18.60
2022-08-01T03:55:54.362Z,18.61
2022-08-01T03:58:21.429Z,18.45
2022-08-01T04:00:48.607Z,18.54
2022-08-01T04:03:15.488Z,18.50
2022-08-01T04:05:43.210Z,18.52
2022-08-01T04:08:09.697Z,18.47
2022-08-01T04:10:36.271Z,18.57
2022-08-01T04:13:02.873Z,18.38
2022-08-01T04:15:29.409Z,18.42
2022-08-01T04:17:55.814Z,18.40
2022-08-01T04:20:22.300Z,18.38
2022-08-01T04:22:48.839Z,18.37
2022-08-01T04:25:27.577Z,18.40
2022-08-01T04:27:54.541Z,18.32
2022-08-01T04:30:27.367Z,18.36
2022-08-01T04:32:55.905Z,18.30
2022-08-01T04:36:02.778Z,18.30
2022-08-01T04:38:10.261Z,18.24
2022-08-01T04:40:37.208Z,18.37
2022-08-01T04:43:03.972Z,18.18
2022-08-01T04:45:30.680Z,18.10
2022-08-01T04:47:58.462Z,18.22
2022-08-01T04:50:25.384Z,18.34
2022-08-01T04:52:52.569Z,18.43
2022-08-01T04:55:19.025Z,18.53
2022-08-01T04:57:47.580Z,18.59
2022-08-01T05:00:14.892Z,18.59
2022-08-01T05:02:41.296Z,18.54
2022-08-01T05:05:08.128Z,18.52
2022-08-01T05:07:45.093Z,18.44
2022-08-01T05:10:12.078Z,18.21
2022-08-01T05:12:38.480Z,18.24
2022-08-01T05:15:05.627Z,18.27
2022-08-01T05:17:32.545Z,18.46
2022-08-01T05:19:59.015Z,18.46
2022-08-01T05:22:26.490Z,18.64
2022-08-01T05:24:53.639Z,18.59
2022-08-01T05:27:20.504Z,18.50
2022-08-01T05:29:48.014Z,18.56
2022-08-01T05:32:14.497Z,18.55
2022-08-01T05:34:40.935Z,18.70
2022-08-01T05:37:08.303Z,18.46
2022-08-01T05:39:34.691Z,18.48
2022-08-01T05:42:01.161Z,18.61
2022-08-01T05:44:27.650Z,18.69
2022-08-01T05:46:54.095Z,18.68
2022-08-01T05:49:20.622Z,18.61
2022-08-01T05:51:47.195Z,18.63
2022-08-01T05:54:13.724Z,18.66
2022-08-01T05:56:40.152Z,18.75
2022-08-01T05:59:06.548Z,18.72
2022-08-01T06:01:33.152Z,18.69
2022-08-01T06:03:59.563Z,18.40
2022-08-01T06:06:26.684Z,18.48
2022-08-01T06:08:53.147Z,18.69
2022-08-01T06:11:19.595Z,18.70
2022-08-01T06:13:48.469Z,18.66
2022-08-01T06:16:15.752Z,18.58
2022-08-01T06:18:42.207Z,18.82
2022-08-01T06:21:08.632Z,18.59
2022-08-01T06:23:35.029Z,18.57
2022-08-01T06:26:01.683Z,18.64
2022-08-01T06:28:28.104Z,18.87
2022-08-01T06:30:54.554Z,18.98
2022-08-01T06:33:21.002Z,18.93
2022-08-01T06:35:47.465Z,19.05
2022-08-01T06:38:14.799Z,19.00
2022-08-01T06:40:41.240Z,18.80
2022-08-01T06:43:07.663Z,18.90
2022-08-01T06:45:34.157Z,18.98
2022-08-01T06:48:00.552Z,19.11
2022-08-01T06:50:26.952Z,19.10
2022-08-01T06:52:53.350Z,19.15
2022-08-01T06:55:20.713Z,19.22
2022-08-01T06:57:52.158Z,19.26
2022-08-01T07:00:23.117Z,19.31
2022-08-01T07:02:51.033Z,19.43
2022-08-01T07:05:17.769Z,19.50
2022-08-01T07:07:44.457Z,19.49
2022-08-01T07:10:11.274Z,19.57
2022-08-01T07:12:38.999Z,19.60
2022-08-01T07:15:06.470Z,19.34
2022-08-01T07:17:32.864Z,19.64
2022-08-01T07:19:59.258Z,19.90
2022-08-01T07:22:25.696Z,19.85
2022-08-01T07:24:54.454Z,20.00
2022-08-01T07:27:21.331Z,19.88
2022-08-01T07:29:52.295Z,19.70
2022-08-01T07:32:20.017Z,19.56
2022-08-01T07:34:46.704Z,19.64
2022-08-01T07:37:13.133Z,19.92
2022-08-01T07:39:39.536Z,20.11
2022-08-01T07:42:08.244Z,20.36
2022-08-01T07:44:35.920Z,20.31
2022-08-01T07:47:02.418Z,20.34
2022-08-01T07:49:29.130Z,20.26
2022-08-01T07:52:03.710Z,19.93
2022-08-01T07:54:33.516Z,20.15
2022-08-01T07:57:00.839Z,20.60
2022-08-01T07:59:27.240Z,20.49
2022-08-01T08:01:53.783Z,20.48
2022-08-01T08:04:20.236Z,20.75
2022-08-01T08:06:48.439Z,20.88
2022-08-01T08:09:15.630Z,20.50
2022-08-01T08:11:47.183Z,20.72
2022-08-01T08:14:14.445Z,21.01
2022-08-01T08:16:40.944Z,21.01
2022-08-01T08:19:07.349Z,20.81
2022-08-01T08:21:33.811Z,20.94
2022-08-01T08:24:18.945Z,20.85
2022-08-01T08:26:45.360Z,20.63
2022-08-01T08:29:11.905Z,20.74
2022-08-01T08:31:52.053Z,20.57
2022-08-01T08:34:19.628Z,20.66
2022-08-01T08:36:47.966Z,20.77
2022-08-01T08:39:14.743Z,20.77
2022-08-01T08:41:41.857Z,20.49
2022-08-01T08:44:10.349Z,20.73
2022-08-01T08:46:45.763Z,21.01
2022-08-01T08:49:13.862Z,21.22
2022-08-01T08:51:42.394Z,21.49
2022-08-01T08:54:11.791Z,21.66
2022-08-01T08:56:38.622Z,21.53
2022-08-01T08:59:05.274Z,21.50
2022-08-01T09:01:36.191Z,21.44
2022-08-01T09:04:05.663Z,21.34
2022-08-01T09:06:32.698Z,21.16
2022-08-01T09:08:59.649Z,21.40
2022-08-01T09:11:26.494Z,21.18
2022-08-01T09:14:26.579Z,21.53
2022-08-01T09:17:07.464Z,21.83
2022-08-01T09:20:03.480Z,21.68
2022-08-01T09:22:33.629Z,21.97
2022-08-01T09:25:02.644Z,21.61
2022-08-01T09:27:29.189Z,21.62
2022-08-01T09:30:11.385Z,21.85
2022-08-01T09:33:11.554Z,22.00
2022-08-01T09:35:46.276Z,21.85
2022-08-01T09:38:20.507Z,21.73
2022-08-01T09:40:54.731Z,21.58
2022-08-01T09:43:24.491Z,22.20
2022-08-01T09:45:53.434Z,22.68
2022-08-01T09:48:22.522Z,22.43
2022-08-01T09:50:53.321Z,22.12
2022-08-01T09:53:29.927Z,21.48
2022-08-01T09:56:09.652Z,21.43
2022-08-01T09:59:02.056Z,21.88
2022-08-01T10:01:43.203Z,22.94
2022-08-01T10:04:15.150Z,23.42
2022-08-01T10:06:45.022Z,22.97
2022-08-01T10:09:14.017Z,23.46
2022-08-01T10:11:42.621Z,23.11
2022-08-01T10:14:09.169Z,22.84
2022-08-01T10:16:38.595Z,22.31
2022-08-01T10:19:14.506Z,22.08
2022-08-01T10:21:56.343Z,21.74
2022-08-01T10:24:26.827Z,21.44
2022-08-01T10:26:57.949Z,21.33
2022-08-01T10:29:46.288Z,21.33
2022-08-01T10:32:11.565Z,21.55
2022-08-01T10:34:38.352Z,22.20
2022-08-01T10:37:11.301Z,22.29
2022-08-01T10:39:37.935Z,22.97
2022-08-01T10:42:10.505Z,23.24
2022-08-01T10:44:37.673Z,23.36
2022-08-01T10:47:13.223Z,23.46
2022-08-01T10:50:04.930Z,22.72
2022-08-01T10:52:31.476Z,22.09
2022-08-01T10:55:05.180Z,22.13
2022-08-01T10:57:52.647Z,21.92
2022-08-01T11:00:21.373Z,21.89
2022-08-01T11:03:04.320Z,22.03
2022-08-01T11:05:35.938Z,21.98
2022-08-01T11:08:04.860Z,22.52
2022-08-01T11:10:45.404Z,23.19
2022-08-01T11:13:12.463Z,23.22
2022-08-01T11:15:50.008Z,23.04
2022-08-01T11:18:29.690Z,23.69
2022-08-01T11:21:56.288Z,23.85
2022-08-01T11:23:50.547Z,23.57
2022-08-01T11:26:17.704Z,23.65
2022-08-01T11:29:05.030Z,23.87
2022-08-01T11:31:37.528Z,22.72
2022-08-01T11:34:04.611Z,22.46
2022-08-01T11:36:55.875Z,22.65
2022-08-01T11:39:18.702Z,23.15
2022-08-01T11:41:49.091Z,22.38
2022-08-01T11:44:21.235Z,22.17
2022-08-01T11:47:11.543Z,23.11
2022-08-01T11:49:48.928Z,24.46
2022-08-01T11:52:30.898Z,23.96
2022-08-01T11:54:59.512Z,23.22
2022-08-01T11:57:34.132Z,22.64
2022-08-01T12:00:15.140Z,22.06
2022-08-01T12:02:45.473Z,22.42
2022-08-01T12:05:15.182Z,23.04
2022-08-01T12:07:43.530Z,24.21
2022-08-01T12:10:12.342Z,24.60
2022-08-01T12:12:43.791Z,24.65
2022-08-01T12:15:10.869Z,24.84
2022-08-01T12:17:40.666Z,25.20
2022-08-01T12:20:15.425Z,25.54
2022-08-01T12:22:44.301Z,25.63
2022-08-01T12:25:10.890Z,24.60
2022-08-01T12:27:38.749Z,24.53
2022-08-01T12:30:11.477Z,24.23
2022-08-01T12:32:40.395Z,24.53
2022-08-01T12:35:18.702Z,24.07
2022-08-01T12:37:50.016Z,24.21
2022-08-01T12:40:22.055Z,24.08
2022-08-01T12:42:50.636Z,25.06
2022-08-01T12:45:26.167Z,25.75
2022-08-01T12:47:53.661Z,26.77
2022-08-01T12:50:22.574Z,24.57
2022-08-01T12:52:50.550Z,25.17
2022-08-01T12:55:18.728Z,25.42
2022-08-01T12:57:54.018Z,25.55
2022-08-01T13:00:25.936Z,24.92
2022-08-01T13:03:11.078Z,24.47
2022-08-01T13:05:49.895Z,24.82
2022-08-01T13:08:22.475Z,25.05
2022-08-01T13:10:49.559Z,24.94
2022-08-01T13:13:27.905Z,26.04
2022-08-01T13:16:04.697Z,26.91
2022-08-01T13:18:33.399Z,27.46
2022-08-01T13:21:16.429Z,27.26
2022-08-01T13:24:13.427Z,26.42
2022-08-01T13:26:43.762Z,27.96
2022-08-01T13:29:11.790Z,28.21
2022-08-01T13:31:39.441Z,27.43
2022-08-01T13:34:05.888Z,26.75
2022-08-01T13:36:32.428Z,26.55
2022-08-01T13:39:18.817Z,26.16
2022-08-01T13:41:46.260Z,25.83
2022-08-01T13:44:12.729Z,25.14
2022-08-01T13:46:39.437Z,24.58
2022-08-01T13:49:16.584Z,25.51
2022-08-01T13:51:43.544Z,24.31
2022-08-01T13:54:10.104Z,24.74
2022-08-01T13:56:36.782Z,25.78
2022-08-01T13:59:03.312Z,26.31
2022-08-01T14:01:34.013Z,26.20
2022-08-01T14:04:00.973Z,25.50
2022-08-01T14:06:27.752Z,25.99
2022-08-01T14:08:54.168Z,26.18
2022-08-01T14:11:20.668Z,26.46
2022-08-01T14:13:47.873Z,26.39
2022-08-01T14:16:14.877Z,25.60
2022-08-01T14:18:41.895Z,25.54
2022-08-01T14:21:10.944Z,24.57
2022-08-01T14:23:37.390Z,24.52
2022-08-01T14:26:08.434Z,24.45
2022-08-01T14:28:38.555Z,25.34
2022-08-01T14:31:07.022Z,26.37
2022-08-01T14:33:34.366Z,26.16
2022-08-01T14:36:20.599Z,25.14
2022-08-01T14:38:47.322Z,24.42
2022-08-01T14:41:15.546Z,25.14
2022-08-01T14:43:41.937Z,26.26
2022-08-01T14:46:10.708Z,26.54
2022-08-01T14:48:37.105Z,25.57
2022-08-01T14:51:03.950Z,25.49
2022-08-01T14:53:31.087Z,24.79
2022-08-01T14:55:57.521Z,24.49
2022-08-01T14:58:23.917Z,24.59
2022-08-01T15:00:52.459Z,24.77
2022-08-01T15:03:22.393Z,24.52
2022-08-01T15:05:48.803Z,24.42
2022-08-01T15:08:15.251Z,24.54
2022-08-01T15:10:41.772Z,24.86
2022-08-01T15:13:08.690Z,25.29
2022-08-01T15:15:35.094Z,25.49
2022-08-01T15:18:01.519Z,25.58
2022-08-01T15:20:28.025Z,25.33
2022-08-01T15:22:55.086Z,25.12
2022-08-01T15:25:21.560Z,24.37
2022-08-01T15:27:48.390Z,24.77
2022-08-01T15:30:14.777Z,24.75
2022-08-01T15:32:41.163Z,24.63
2022-08-01T15:35:07.944Z,24.37
2022-08-01T15:37:35.187Z,24.21
2022-08-01T15:40:04.219Z,23.95
2022-08-01T15:42:30.635Z,23.77
2022-08-01T15:44:57.026Z,23.81
2022-08-01T15:47:24.960Z,23.93
2022-08-01T15:49:52.391Z,24.08
2022-08-01T15:52:21.785Z,24.21
2022-08-01T15:54:49.960Z,24.31
2022-08-01T15:57:16.570Z,24.21
2022-08-01T15:59:42.991Z,24.26
2022-08-01T16:02:09.867Z,24.25
2022-08-01T16:04:38.960Z,24.32
2022-08-01T16:07:06.114Z,24.20
2022-08-01T16:09:32.526Z,24.07
2022-08-01T16:11:58.927Z,24.13
2022-08-01T16:14:25.329Z,23.93
2022-08-01T16:16:51.746Z,23.89
2022-08-01T16:19:19.469Z,24.07
2022-08-01T16:21:47.899Z,24.23
2022-08-01T16:24:14.540Z,24.39
2022-08-01T16:26:41.106Z,24.37
2022-08-01T16:29:07.561Z,24.32
2022-08-01T16:31:43.788Z,24.36
2022-08-01T16:34:21.185Z,24.27
2022-08-01T16:36:50.175Z,24.41
2022-08-01T16:39:22.439Z,24.13
2022-08-01T16:41:49.806Z,23.76
2022-08-01T16:44:28.661Z,23.48
2022-08-01T16:47:02.964Z,23.40
2022-08-01T16:49:29.579Z,23.45
2022-08-01T16:51:55.993Z,23.53
2022-08-01T16:54:25.429Z,23.56
2022-08-01T16:56:52.674Z,23.71
2022-08-01T16:59:19.064Z,23.48
2022-08-01T17:01:59.167Z,23.22
2022-08-01T17:04:28.119Z,23.34
2022-08-01T17:06:54.517Z,23.22
2022-08-01T17:09:20.977Z,23.44
2022-08-01T17:11:47.413Z,23.24
2022-08-01T17:14:14.525Z,23.40
2022-08-01T17:16:41.658Z,23.28
2022-08-01T17:19:08.057Z,23.23
2022-08-01T17:21:34.466Z,23.18
2022-08-01T17:24:00.989Z,23.18
2022-08-01T17:26:27.421Z,23.07
2022-08-01T17:28:53.822Z,23.01
2022-08-01T17:31:20.332Z,22.82
2022-08-01T17:33:49.518Z,22.78
2022-08-01T17:36:20.997Z,22.68
2022-08-01T17:38:47.514Z,22.55
2022-08-01T17:41:14.038Z,22.37
2022-08-01T17:43:40.492Z,22.20
2022-08-01T17:46:06.897Z,22.12
2022-08-01T17:48:33.307Z,22.14
2022-08-01T17:50:59.781Z,22.09
2022-08-01T17:53:26.204Z,22.08
2022-08-01T17:55:57.206Z,22.15
2022-08-01T17:58:48.819Z,22.36
2022-08-01T18:01:12.052Z,22.48
2022-08-01T18:03:41.007Z,22.40
2022-08-01T18:06:08.336Z,22.36
2022-08-01T18:08:35.378Z,22.31
2022-08-01T18:11:01.838Z,22.26
2022-08-01T18:13:29.270Z,22.21
2022-08-01T18:15:56.319Z,22.10
2022-08-01T18:18:32.744Z,22.04
2022-08-01T18:21:01.137Z,21.96
2022-08-01T18:23:27.654Z,21.73
2022-08-01T18:25:54.204Z,21.71
2022-08-01T18:28:30.724Z,21.56
2022-08-01T18:31:00.793Z,21.54
2022-08-01T18:33:27.301Z,21.44
2022-08-01T18:35:54.320Z,21.37
2022-08-01T18:38:20.727Z,21.49
2022-08-01T18:40:50.545Z,21.56
2022-08-01T18:43:17.014Z,21.41
2022-08-01T18:45:43.471Z,21.39
2022-08-01T18:48:11.184Z,21.38
2022-08-01T18:50:37.663Z,21.44
2022-08-01T18:53:04.064Z,21.38
2022-08-01T18:55:30.559Z,21.33
2022-08-01T18:57:56.944Z,21.25
2022-08-01T19:00:23.376Z,21.27
2022-08-01T19:02:49.783Z,21.20
2022-08-01T19:05:16.211Z,20.92
2022-08-01T19:08:04.884Z,20.87
2022-08-01T19:10:28.945Z,20.87
2022-08-01T19:12:55.378Z,20.79
2022-08-01T19:15:21.794Z,20.69
2022-08-01T19:17:48.571Z,20.70
2022-08-01T19:20:15.117Z,20.70
2022-08-01T19:22:41.681Z,20.71
2022-08-01T19:25:08.515Z,20.52
2022-08-01T19:27:37.508Z,20.58
2022-08-01T19:30:04.517Z,20.73
2022-08-01T19:32:34.243Z,20.72
2022-08-01T19:35:08.947Z,20.59
2022-08-01T19:37:35.393Z,20.46
2022-08-01T19:40:01.760Z,20.37
2022-08-01T19:42:29.160Z,20.26
2022-08-01T19:44:55.809Z,20.03
2022-08-01T19:47:22.297Z,20.02
2022-08-01T19:49:49.043Z,20.06
2022-08-01T19:52:17.719Z,19.92
2022-08-01T19:54:45.432Z,19.92
2022-08-01T19:57:15.610Z,19.98
2022-08-01T19:59:45.537Z,19.92
2022-08-01T20:02:15.414Z,19.88
2022-08-01T20:04:42.686Z,20.04
2022-08-01T20:07:09.484Z,19.95
2022-08-01T20:09:36.822Z,19.91
2022-08-01T20:12:03.358Z,19.83
2022-08-01T20:14:29.839Z,19.64
2022-08-01T20:16:56.439Z,19.28
2022-08-01T20:19:25.959Z,19.28
2022-08-01T20:22:03.214Z,19.14
2022-08-01T20:24:38.036Z,19.31
2022-08-01T20:27:06.420Z,19.18
2022-08-01T20:29:33.261Z,19.10
2022-08-01T20:32:00.108Z,18.99
2022-08-01T20:34:27.314Z,19.09
2022-08-01T20:36:56.412Z,18.92
2022-08-01T20:39:23.810Z,19.02
2022-08-01T20:41:59.579Z,19.21
2022-08-01T20:44:26.916Z,19.03
2022-08-01T20:46:54.302Z,18.99
2022-08-01T20:49:21.321Z,18.97
2022-08-01T20:51:50.567Z,19.08
2022-08-01T20:54:16.985Z,18.96
2022-08-01T20:56:58.982Z,18.86
2022-08-01T20:59:54.528Z,18.66
2022-08-01T21:03:01.259Z,18.62
2022-08-01T21:05:30.874Z,18.75
2022-08-01T21:08:13.232Z,18.69
2022-08-01T21:10:40.692Z,18.43
2022-08-01T21:13:12.511Z,18.35
2022-08-01T21:16:22.201Z,18.31
2022-08-01T21:18:58.053Z,18.38
2022-08-01T21:21:30.110Z,18.27
2022-08-01T21:24:05.889Z,18.04
2022-08-01T21:26:35.568Z,17.90
2022-08-01T21:29:06.354Z,17.78
2022-08-01T21:31:40.893Z,17.57
2022-08-01T21:34:08.137Z,17.63
2022-08-01T21:36:35.771Z,17.54
2022-08-01T21:39:04.770Z,17.46
2022-08-01T21:42:05.003Z,17.35
2022-08-01T21:44:18.196Z,17.24
2022-08-01T21:46:47.033Z,17.14
2022-08-01T21:49:13.537Z,17.20
2022-08-01T21:51:51.712Z,17.12
2022-08-01T21:54:24.650Z,17.06
2022-08-01T21:57:08.909Z,17.13
2022-08-01T21:59:51.228Z,17.21
2022-08-01T22:02:18.073Z,17.13
2022-08-01T22:05:13.982Z,17.20
2022-08-01T22:07:48.541Z,17.33
2022-08-01T22:10:19.482Z,17.15
2022-08-01T22:12:46.841Z,17.09
2022-08-01T22:15:14.858Z,16.81
2022-08-01T22:17:41.953Z,16.67
2022-08-01T22:20:09.183Z,16.53
2022-08-01T22:22:50.866Z,16.59
2022-08-01T22:25:19.909Z,16.61
2022-08-01T22:28:06.283Z,16.63
2022-08-01T22:30:34.271Z,16.61
2022-08-01T22:33:07.112Z,16.47
2022-08-01T22:35:43.074Z,16.43
2022-08-01T22:38:10.131Z,16.49
2022-08-01T22:40:40.571Z,16.41
2022-08-01T22:43:17.178Z,16.40
2022-08-01T22:45:54.294Z,16.51
2022-08-01T22:48:25.700Z,16.53
2022-08-01T22:51:05.838Z,16.45
2022-08-01T22:53:44.393Z,16.39
2022-08-01T22:56:11.884Z,16.26
2022-08-01T22:58:40.235Z,16.34
2022-08-01T23:01:10.625Z,16.26
2022-08-01T23:03:40.545Z,16.22
2022-08-01T23:06:16.873Z,16.33
2022-08-01T23:08:45.933Z,16.14
2022-08-01T23:11:12.992Z,16.21
2022-08-01T23:13:39.834Z,16.22
2022-08-01T23:16:06.274Z,16.08
2022-08-01T23:18:32.811Z,16.05
2022-08-01T23:21:02.125Z,16.28
2022-08-01T23:23:30.723Z,16.16
2022-08-01T23:25:58.817Z,16.05
2022-08-01T23:28:26.149Z,16.03
2022-08-01T23:30:52.739Z,15.87
2022-08-01T23:33:19.254Z,15.79
2022-08-01T23:35:45.883Z,15.97
2022-08-01T23:38:15.637Z,16.09
2022-08-01T23:40:42.318Z,16.05
2022-08-01T23:43:16.733Z,15.80
2022-08-01T23:46:04.371Z,15.45
2022-08-01T23:48:35.019Z,15.47
2022-08-01T23:51:02.354Z,15.50
2022-08-01T23:53:31.096Z,15.49
2022-08-01T23:55:58.716Z,15.56
2022-08-01T23:58:25.250Z,15.50
